createdAt,value
2023-01-26T00:00:37.389Z,-0.21
2023-01-26T00:03:38.890Z,-0.19
2023-01-26T00:06:40.404Z,-0.19
2023-01-26T00:09:41.861Z,-0.18
2023-01-26T00:12:43.316Z,-0.33
2023-01-26T00:15:44.904Z,-0.06
2023-01-26T00:18:46.391Z,-0.41
2023-01-26T00:21:47.823Z,-0.28
2023-01-26T00:24:49.329Z,-0.23
2023-01-26T00:27:50.776Z,-0.41
2023-01-26T00:30:52.416Z,0.14
2023-01-26T00:33:54.440Z,0.09
2023-01-26T00:36:55.873Z,0.01
2023-01-26T00:39:57.323Z,-0.22
2023-01-26T00:42:59.261Z,0.07
2023-01-26T00:46:00.777Z,-0.09
2023-01-26T00:49:02.266Z,-0.39
2023-01-26T00:52:03.764Z,-0.16
2023-01-26T00:55:05.610Z,-0.20
2023-01-26T00:58:07.499Z,-0.15
2023-01-26T01:01:09.092Z,-0.22
2023-01-26T01:04:10.581Z,-0.03
2023-01-26T01:07:12.031Z,-0.24
2023-01-26T01:10:13.673Z,0.12
2023-01-26T01:13:15.170Z,-0.20
2023-01-26T01:16:16.755Z,0.04
2023-01-26T01:19:18.288Z,-0.31
2023-01-26T01:22:19.784Z,-0.07
2023-01-26T01:25:21.264Z,-0.05
2023-01-26T01:28:22.709Z,-0.20
2023-01-26T01:31:24.293Z,-0.21
2023-01-26T01:34:25.762Z,-0.07
2023-01-26T01:37:28.847Z,-0.27
2023-01-26T01:40:30.398Z,-0.09
2023-01-26T01:43:31.892Z,-0.06
2023-01-26T01:46:34.128Z,-0.05
2023-01-26T01:49:48.932Z,0.13
2023-01-26T01:52:50.390Z,0.03
2023-01-26T01:55:54.466Z,-0.01
2023-01-26T01:58:57.656Z,0.06
2023-01-26T02:01:59.126Z,0.18
2023-01-26T02:05:04.227Z,0.31
2023-01-26T02:08:06.132Z,0.24
2023-01-26T02:11:13.872Z,0.29
2023-01-26T02:14:15.361Z,0.37
2023-01-26T02:17:16.800Z,0.38
2023-01-26T02:20:25.091Z,0.44
2023-01-26T02:23:48.319Z,0.31
2023-01-26T02:26:49.812Z,0.31
2023-01-26T02:29:51.257Z,0.26
2023-01-26T02:32:52.955Z,0.09
2023-01-26T02:35:54.469Z,0.29
2023-01-26T02:39:11.773Z,0.07
2023-01-26T02:42:31.770Z,-0.18
2023-01-26T02:45:33.261Z,-0.19
2023-01-26T02:48:57.808Z,-0.20
2023-01-26T02:51:59.581Z,-0.10
2023-01-26T02:55:19.501Z,-0.18
2023-01-26T03:02:43.362Z,-0.39
2023-01-26T03:05:44.933Z,-0.28
2023-01-26T03:08:46.397Z,-0.39
2023-01-26T03:11:47.831Z,-0.41
2023-01-26T03:15:09.239Z,-0.32
2023-01-26T03:18:35.624Z,-0.53
2023-01-26T03:21:55.768Z,-0.61
2023-01-26T03:25:15.785Z,-0.58
2023-01-26T03:28:22.177Z,-0.63
2023-01-26T03:31:23.677Z,-0.62
2023-01-26T03:34:25.576Z,-0.71
2023-01-26T03:37:27.043Z,-0.73
2023-01-26T03:40:47.189Z,-0.69
2023-01-26T03:44:07.398Z,-0.79
2023-01-26T03:47:27.482Z,-0.79
2023-01-26T03:50:47.419Z,-0.93
2023-01-26T03:54:07.518Z,-0.91
2023-01-26T03:57:08.972Z,-0.82
2023-01-26T04:00:11.280Z,-0.93
2023-01-26T04:03:31.282Z,-0.88
2023-01-26T04:06:51.370Z,-0.81
2023-01-26T04:09:52.854Z,-0.90
2023-01-26T04:13:12.788Z,-0.93
2023-01-26T04:16:32.900Z,-1.05
2023-01-26T04:19:53.091Z,-0.85
2023-01-26T04:22:54.676Z,-0.91
2023-01-26T04:25:56.155Z,-1.20
2023-01-26T04:28:57.629Z,-0.98
2023-01-26T04:31:59.100Z,-1.10
2023-01-26T04:35:00.564Z,-1.08
2023-01-26T04:38:02.029Z,-1.05
2023-01-26T04:41:03.560Z,-1.18
2023-01-26T04:44:05.112Z,-1.03
2023-01-26T04:47:06.531Z,-1.10
2023-01-26T04:50:08.854Z,-1.12
2023-01-26T04:53:10.553Z,-1.07
2023-01-26T04:56:26.847Z,-1.19
2023-01-26T04:59:28.369Z,-1.02
2023-01-26T05:02:30.018Z,-0.92
2023-01-26T05:05:35.092Z,-0.85
2023-01-26T05:08:36.997Z,-1.07
2023-01-26T05:11:38.456Z,-1.01
2023-01-26T05:14:39.952Z,-1.11
2023-01-26T05:17:41.433Z,-0.99
2023-01-26T05:20:42.884Z,-0.82
2023-01-26T05:23:44.373Z,-0.91
2023-01-26T05:26:45.816Z,-1.00
2023-01-26T05:29:47.553Z,-1.02
2023-01-26T05:32:49.015Z,-1.15
2023-01-26T05:35:50.960Z,-1.14
2023-01-26T05:38:52.401Z,-1.28
2023-01-26T05:41:56.770Z,-0.95
2023-01-26T05:44:58.223Z,-1.29
2023-01-26T05:47:59.717Z,-1.19
2023-01-26T05:51:03.808Z,-0.99
2023-01-26T05:54:05.532Z,-1.00
2023-01-26T05:57:07.000Z,-1.19
2023-01-26T06:00:09.335Z,-0.67
2023-01-26T06:03:13.075Z,-0.71
2023-01-26T06:06:14.548Z,-0.65
2023-01-26T06:09:16.171Z,-0.86
2023-01-26T06:12:18.801Z,-0.73
2023-01-26T06:15:20.270Z,-1.06
2023-01-26T06:18:21.764Z,-0.55
2023-01-26T06:21:23.247Z,-0.85
2023-01-26T06:24:24.893Z,-0.87
2023-01-26T06:27:26.357Z,-1.27
2023-01-26T06:30:27.917Z,-1.20
2023-01-26T06:33:30.118Z,-1.31
2023-01-26T06:36:31.637Z,-1.06
2023-01-26T06:39:33.120Z,-1.20
2023-01-26T06:42:34.580Z,-1.16
2023-01-26T06:45:36.052Z,-0.98
2023-01-26T06:48:38.825Z,-1.23
2023-01-26T06:51:47.208Z,-1.19
2023-01-26T06:54:50.627Z,-1.22
2023-01-26T06:57:54.176Z,-0.83
2023-01-26T07:00:55.921Z,-0.69
2023-01-26T07:03:57.415Z,-0.53
2023-01-26T07:06:58.930Z,-0.57
2023-01-26T07:10:00.387Z,-0.36
2023-01-26T07:13:01.826Z,-0.76
2023-01-26T07:16:08.799Z,-0.43
2023-01-26T07:19:10.314Z,-0.38
2023-01-26T07:22:11.873Z,-0.55
2023-01-26T07:25:13.408Z,-0.38
2023-01-26T07:28:14.865Z,-0.55
2023-01-26T07:31:16.541Z,-0.50
2023-01-26T07:34:18.089Z,-0.35
2023-01-26T07:37:19.550Z,-0.40
2023-01-26T07:40:21.106Z,-0.49
2023-01-26T07:43:22.579Z,-0.81
2023-01-26T07:46:24.631Z,-0.67
2023-01-26T07:49:26.122Z,-0.53
2023-01-26T07:52:27.638Z,-1.01
2023-01-26T07:55:29.121Z,-0.88
2023-01-26T07:58:30.573Z,-0.82
2023-01-26T08:01:32.135Z,-0.42
2023-01-26T08:04:33.795Z,-0.91
2023-01-26T08:07:35.235Z,-0.85
2023-01-26T08:10:36.712Z,-1.08
2023-01-26T08:13:38.192Z,-0.94
2023-01-26T08:16:39.713Z,-0.91
2023-01-26T08:19:41.216Z,-1.08
2023-01-26T08:22:42.676Z,-1.17
2023-01-26T08:25:44.175Z,-0.85
2023-01-26T08:28:45.788Z,-0.78
2023-01-26T08:31:47.314Z,-0.75
2023-01-26T08:34:48.829Z,-0.92
2023-01-26T08:37:51.379Z,-1.13
2023-01-26T08:40:53.697Z,-1.07
2023-01-26T08:43:56.723Z,-1.13
2023-01-26T08:46:58.188Z,-1.11
2023-01-26T08:49:59.700Z,-1.09
2023-01-26T08:53:01.154Z,-1.13
2023-01-26T08:56:03.755Z,-1.24
2023-01-26T08:59:05.325Z,-1.08
2023-01-26T09:02:06.937Z,-1.11
2023-01-26T09:05:08.972Z,-1.27
2023-01-26T09:08:10.841Z,-1.08
2023-01-26T09:11:12.355Z,-1.19
2023-01-26T09:14:13.856Z,-0.96
2023-01-26T09:17:15.331Z,-1.04
2023-01-26T09:20:17.253Z,-0.70
2023-01-26T09:23:18.805Z,-0.69
2023-01-26T09:26:20.339Z,-0.85
2023-01-26T09:29:21.894Z,-0.97
2023-01-26T09:32:23.400Z,-0.75
2023-01-26T09:35:24.883Z,-0.68
2023-01-26T09:38:26.346Z,-1.04
2023-01-26T09:41:45.656Z,-0.84
2023-01-26T09:45:05.796Z,-0.83
2023-01-26T09:48:16.863Z,-0.95
2023-01-26T09:51:29.263Z,-0.93
2023-01-26T09:54:40.652Z,-0.77
2023-01-26T09:57:47.727Z,-0.87
2023-01-26T10:00:50.769Z,-0.81
2023-01-26T10:04:04.229Z,-1.00
2023-01-26T10:07:09.242Z,-0.94
2023-01-26T10:10:15.574Z,-1.17
2023-01-26T10:13:17.041Z,-1.09
2023-01-26T10:16:18.564Z,-0.82
2023-01-26T10:19:34.190Z,-0.82
2023-01-26T10:22:45.247Z,-0.78
2023-01-26T10:25:50.968Z,-0.74
2023-01-26T10:28:52.443Z,-0.60
2023-01-26T10:31:55.100Z,-0.81
2023-01-26T10:34:56.904Z,-0.86
2023-01-26T10:37:58.504Z,-1.01
2023-01-26T10:41:00.852Z,-0.92
2023-01-26T10:44:07.784Z,-0.85
2023-01-26T10:47:15.998Z,-0.90
2023-01-26T10:50:22.144Z,-1.03
2023-01-26T10:53:25.048Z,-1.11
2023-01-26T10:56:26.513Z,-0.98
2023-01-26T10:59:46.302Z,-0.73
2023-01-26T11:03:05.191Z,-0.92
2023-01-26T11:06:18.478Z,-0.95
2023-01-26T11:09:31.110Z,-0.90
2023-01-26T11:12:32.704Z,-0.85
2023-01-26T11:15:39.846Z,-1.05
2023-01-26T11:18:46.820Z,-1.01
2023-01-26T11:21:55.399Z,-0.85
2023-01-26T11:24:59.800Z,-1.16
2023-01-26T11:28:18.951Z,-0.96
2023-01-26T11:31:45.212Z,-0.76
2023-01-26T11:35:24.326Z,-0.57
2023-01-26T11:38:37.828Z,-0.74
2023-01-26T11:42:05.423Z,-0.93
2023-01-26T11:45:38.570Z,-0.65
2023-01-26T11:49:01.954Z,-1.04
2023-01-26T11:52:25.643Z,-0.73
2023-01-26T11:55:53.083Z,-0.90
2023-01-26T11:59:01.272Z,-0.77
2023-01-26T12:02:28.014Z,-0.49
2023-01-26T12:05:47.824Z,-0.56
2023-01-26T12:08:54.451Z,-0.27
2023-01-26T12:12:09.799Z,-0.47
2023-01-26T12:15:14.023Z,-0.72
2023-01-26T12:18:21.275Z,-0.37
2023-01-26T12:21:22.777Z,-0.62
2023-01-26T12:25:17.643Z,-0.77
2023-01-26T12:28:07.077Z,-0.73
2023-01-26T12:31:32.343Z,-0.72
2023-01-26T12:34:33.950Z,-0.73
2023-01-26T12:37:44.360Z,-0.95
2023-01-26T12:40:58.561Z,-0.70
2023-01-26T12:44:21.413Z,-0.73
2023-01-26T12:47:24.501Z,-0.82
2023-01-26T12:50:39.598Z,-0.85
2023-01-26T12:53:46.196Z,-0.93
2023-01-26T12:56:50.783Z,-0.95
2023-01-26T12:59:52.372Z,-0.95
2023-01-26T13:03:00.307Z,-0.82
2023-01-26T13:06:11.053Z,-0.96
2023-01-26T13:09:23.643Z,-0.87
2023-01-26T13:13:01.055Z,-0.75
2023-01-26T13:16:17.800Z,-0.83
2023-01-26T13:19:44.243Z,-0.84
2023-01-26T13:22:47.573Z,-0.83
2023-01-26T13:25:56.404Z,-1.01
2023-01-26T13:29:24.282Z,-0.84
2023-01-26T13:32:25.744Z,-0.94
2023-01-26T13:35:27.232Z,-0.77
2023-01-26T13:38:29.203Z,-0.76
2023-01-26T13:41:30.749Z,-0.73
2023-01-26T13:44:40.399Z,-0.99
2023-01-26T13:47:43.872Z,-0.68
2023-01-26T13:50:46.201Z,-0.88
2023-01-26T13:53:58.285Z,-0.83
2023-01-26T13:57:01.721Z,-1.08
2023-01-26T14:00:03.503Z,-0.97
2023-01-26T14:03:05.018Z,-0.84
2023-01-26T14:06:19.364Z,-0.72
2023-01-26T14:09:20.816Z,-0.91
2023-01-26T14:12:28.172Z,-0.97
2023-01-26T14:15:30.659Z,-1.01
2023-01-26T14:18:32.202Z,-1.19
2023-01-26T14:21:33.684Z,-1.05
2023-01-26T14:24:42.493Z,-1.27
2023-01-26T14:27:43.940Z,-1.23
2023-01-26T14:30:50.314Z,-1.24
2023-01-26T14:33:57.827Z,-1.04
2023-01-26T14:37:16.717Z,-1.14
2023-01-26T14:40:19.443Z,-1.34
2023-01-26T14:43:20.760Z,-1.11
2023-01-26T14:46:47.128Z,-1.13
2023-01-26T14:49:54.608Z,-0.92
2023-01-26T14:52:56.047Z,-1.24
2023-01-26T14:55:57.486Z,-1.23
2023-01-26T14:58:58.967Z,-0.97
2023-01-26T15:02:10.925Z,-1.06
2023-01-26T15:05:21.781Z,-0.81
2023-01-26T15:08:24.131Z,-1.12
2023-01-26T15:11:52.343Z,-0.92
2023-01-26T15:14:58.111Z,-1.24
2023-01-26T15:18:03.706Z,-1.25
2023-01-26T15:21:13.824Z,-1.11
2023-01-26T15:24:15.335Z,-1.22
2023-01-26T15:27:16.833Z,-1.27
2023-01-26T15:30:19.249Z,-0.97
2023-01-26T15:33:52.907Z,-1.11
2023-01-26T15:36:54.500Z,-1.11
2023-01-26T15:39:55.953Z,-1.03
2023-01-26T15:43:19.341Z,-1.18
2023-01-26T15:46:20.833Z,-1.23
2023-01-26T15:49:23.409Z,-1.20
2023-01-26T15:52:26.120Z,-1.01
2023-01-26T15:55:29.125Z,-1.16
2023-01-26T15:58:34.680Z,-1.49
2023-01-26T16:01:36.175Z,-1.39
2023-01-26T16:04:37.610Z,-1.39
2023-01-26T16:07:39.084Z,-1.14
2023-01-26T16:10:40.819Z,-1.31
2023-01-26T16:13:54.025Z,-1.24
2023-01-26T16:17:11.293Z,-1.29
2023-01-26T16:20:12.844Z,-1.02
2023-01-26T16:23:20.386Z,-1.37
2023-01-26T16:26:21.848Z,-1.12
2023-01-26T16:29:23.317Z,-1.05
2023-01-26T16:32:28.094Z,-1.22
2023-01-26T16:35:29.707Z,-1.23
2023-01-26T16:38:31.239Z,-1.25
2023-01-26T16:41:32.737Z,-1.05
2023-01-26T16:44:34.189Z,-1.48
2023-01-26T16:47:36.261Z,-1.51
2023-01-26T16:50:37.788Z,-1.67
2023-01-26T16:53:39.366Z,-1.46
2023-01-26T16:56:41.185Z,-1.34
2023-01-26T16:59:42.696Z,-1.43
2023-01-26T17:02:46.471Z,-1.57
2023-01-26T17:05:48.020Z,-1.67
2023-01-26T17:08:49.498Z,-1.46
2023-01-26T17:11:51.010Z,-1.10
2023-01-26T17:14:52.532Z,-1.45
2023-01-26T17:17:54.016Z,-1.51
2023-01-26T17:21:01.738Z,-1.33
2023-01-26T17:24:03.601Z,-1.37
2023-01-26T17:27:05.344Z,-1.21
2023-01-26T17:30:07.297Z,-1.75
2023-01-26T17:33:08.828Z,-1.68
2023-01-26T17:36:10.407Z,-1.54
2023-01-26T17:39:11.923Z,-1.83
2023-01-26T17:42:13.560Z,-1.71
2023-01-26T17:45:15.098Z,-1.54
2023-01-26T17:48:16.607Z,-1.72
2023-01-26T17:51:19.368Z,-1.56
2023-01-26T17:54:20.752Z,-1.74
2023-01-26T17:57:22.239Z,-1.88
2023-01-26T18:00:23.736Z,-1.82
2023-01-26T18:03:26.872Z,-1.89
2023-01-26T18:06:28.893Z,-1.93
2023-01-26T18:09:30.430Z,-1.89
2023-01-26T18:12:33.191Z,-1.68
2023-01-26T18:15:36.105Z,-1.57
2023-01-26T18:18:37.620Z,-1.76
2023-01-26T18:21:39.135Z,-1.87
2023-01-26T18:24:40.672Z,-1.93
2023-01-26T18:27:42.260Z,-1.98
2023-01-26T18:30:43.742Z,-1.99
2023-01-26T18:33:45.364Z,-2.13
2023-01-26T18:36:46.965Z,-1.92
2023-01-26T18:39:48.502Z,-1.83
2023-01-26T18:42:53.889Z,-1.90
2023-01-26T18:45:55.425Z,-1.82
2023-01-26T18:49:03.656Z,-1.77
2023-01-26T18:52:05.669Z,-1.77
2023-01-26T18:55:08.583Z,-1.84
2023-01-26T18:58:10.140Z,-1.81
2023-01-26T19:01:13.554Z,-1.82
2023-01-26T19:04:17.931Z,-1.51
2023-01-26T19:07:19.662Z,-1.70
2023-01-26T19:10:21.139Z,-1.96
2023-01-26T19:13:22.634Z,-1.68
2023-01-26T19:16:24.340Z,-1.84
2023-01-26T19:19:25.871Z,-1.79
2023-01-26T19:22:27.393Z,-1.75
2023-01-26T19:25:28.860Z,-1.75
2023-01-26T19:28:30.326Z,-1.78
2023-01-26T19:31:32.224Z,-1.87
2023-01-26T19:34:35.037Z,-1.90
2023-01-26T19:37:36.385Z,-1.88
2023-01-26T19:40:37.851Z,-1.85
2023-01-26T19:43:39.415Z,-1.54
2023-01-26T19:46:40.885Z,-1.67
2023-01-26T19:49:42.323Z,-1.82
2023-01-26T19:52:43.779Z,-1.35
2023-01-26T19:55:45.216Z,-1.54
2023-01-26T19:58:54.099Z,-1.84
2023-01-26T20:01:55.914Z,-1.68
2023-01-26T20:04:57.441Z,-1.58
2023-01-26T20:07:58.919Z,-1.41
2023-01-26T20:11:07.193Z,-2.05
2023-01-26T20:14:09.889Z,-1.65
2023-01-26T20:17:11.348Z,-1.81
2023-01-26T20:20:13.618Z,-2.09
2023-01-26T20:23:15.093Z,-2.00
2023-01-26T20:26:17.305Z,-1.90
2023-01-26T20:29:19.273Z,-2.20
2023-01-26T20:32:20.759Z,-1.86
2023-01-26T20:35:22.225Z,-2.02
2023-01-26T20:38:23.659Z,-1.95
2023-01-26T20:41:27.288Z,-1.96
2023-01-26T20:44:28.999Z,-1.77
2023-01-26T20:47:33.996Z,-1.61
2023-01-26T20:50:40.703Z,-1.71
2023-01-26T20:53:42.276Z,-1.65
2023-01-26T20:56:45.669Z,-1.86
2023-01-26T20:59:47.238Z,-1.98
2023-01-26T21:02:48.711Z,-1.70
2023-01-26T21:05:50.164Z,-1.85
2023-01-26T21:08:55.589Z,-1.99
2023-01-26T21:11:57.036Z,-1.77
2023-01-26T21:14:58.477Z,-1.75
2023-01-26T21:17:59.909Z,-1.81
2023-01-26T21:21:06.975Z,-1.71
2023-01-26T21:24:08.503Z,-1.70
2023-01-26T21:27:10.039Z,-1.72
2023-01-26T21:30:12.253Z,-1.89
2023-01-26T21:33:13.870Z,-1.57
2023-01-26T21:36:19.477Z,-1.54
2023-01-26T21:39:22.191Z,-1.49
2023-01-26T21:42:23.670Z,-1.32
2023-01-26T21:45:57.610Z,-1.42
2023-01-26T21:48:59.144Z,-2.04
2023-01-26T21:52:19.496Z,-1.84
2023-01-26T21:55:20.979Z,-2.10
2023-01-26T21:58:41.154Z,-1.71
2023-01-26T22:01:44.438Z,-1.81
2023-01-26T22:04:45.927Z,-1.57
2023-01-26T22:07:47.387Z,-1.71
2023-01-26T22:10:55.566Z,-1.79
2023-01-26T22:13:57.042Z,-1.88
2023-01-26T22:16:58.529Z,-1.79
2023-01-26T22:20:00.007Z,-1.78
2023-01-26T22:23:02.649Z,-1.74
2023-01-26T22:26:04.765Z,-1.77
2023-01-26T22:29:07.230Z,-1.87
2023-01-26T22:32:08.797Z,-1.66
2023-01-26T22:35:10.421Z,-1.92
2023-01-26T22:38:11.878Z,-1.61
2023-01-26T22:41:15.729Z,-1.91
2023-01-26T22:44:17.233Z,-2.07
2023-01-26T22:47:18.695Z,-1.99
2023-01-26T22:50:20.166Z,-1.77
2023-01-26T22:53:21.629Z,-1.73
2023-01-26T22:56:23.116Z,-1.77
2023-01-26T22:59:24.644Z,-1.85
2023-01-26T23:02:26.193Z,-1.90
2023-01-26T23:05:27.644Z,-2.05
2023-01-26T23:08:29.441Z,-1.90
2023-01-26T23:11:30.990Z,-1.93
2023-01-26T23:14:32.543Z,-2.17
2023-01-26T23:17:33.988Z,-2.00
2023-01-26T23:20:35.479Z,-1.94
2023-01-26T23:23:38.213Z,-1.87
2023-01-26T23:26:39.705Z,-1.83
2023-01-26T23:29:41.167Z,-1.90
2023-01-26T23:32:42.639Z,-2.21
2023-01-26T23:35:44.315Z,-2.14
2023-01-26T23:38:45.841Z,-2.04
2023-01-26T23:41:47.341Z,-2.24
2023-01-26T23:44:48.804Z,-2.12
2023-01-26T23:47:50.275Z,-2.13
2023-01-26T23:50:58.360Z,-1.84
2023-01-26T23:53:59.794Z,-2.19
2023-01-26T23:57:01.286Z,-2.00
